KCVB

Castroville Municipal Airport

Castroville, Texas, USA
METAR KCVB 182135Z AUTO 12008KT 7SM CLR 37/15 A2993 RMK AO2 T03680145
Observed Flight Rules
Aug-18 @ 21:35 UTC (18 minutes ago) Visual Flight Rules
Wind Visibility Clouds
120° at 8 knots 7 miles
  • Clear skies
Temperatures Readings
Current 37°C / 99°F
Dewpoint 15°C / 59°F
Humidity 27%
Altimeter 29.93" Hg
Pressure 1014 hPa
Elevation 235
METAR KCVB 182135Z AUTO 12008KT 7SM CLR 37/15 A2993 RMK AO2 T03680145
Observed Flight Rules
Aug-18 @ 21:35 UTC
(18 minutes ago)
VFR
Wind Visibility
120° at 8 knots 7 miles
Clouds
  • Clear skies
Temperature Dewpoint
37°C / 99°F 15°C / 59°F
Humidity Altimeter Pressure
27% 29.93" Hg 1014 hPa